Time;durP1;ratioP1;P1;durP2;ratioP2;P2;SDS_P1;SDS_P2;PMS_P1;PMS_P2;Temp;Humidity;BMP_temperature;BMP_pressure;BME280_temperature;BME280_humidity;BME280_pressure;Samples;Min_cycle;Max_cycle;Signal;HPM_P1;HPM_P2
2022/02/20 00:00:36;;;;;;;12.80;0.40;;;5.60;99.90;;;;;;6121335;23;20020;-78
2022/02/20 00:03:02;;;;;;;5.68;0.63;;;5.60;99.90;;;;;;6147033;23;20010;-82
2022/02/20 00:05:27;;;;;;;5.47;0.40;;;5.60;99.90;;;;;;6121453;23;20072;-79
2022/02/20 00:07:53;;;;;;;5.97;0.40;;;5.60;99.90;;;;;;6146453;23;20097;-79
2022/02/20 00:10:19;;;;;;;14.60;0.40;;;5.60;99.90;;;;;;6146840;23;20014;-81
2022/02/20 00:12:45;;;;;;;5.30;0.70;;;5.60;99.90;;;;;;6121767;23;20009;-78
2022/02/20 00:15:12;;;;;;;10.00;0.60;;;5.60;99.90;;;;;;6121466;23;20028;-81
2022/02/20 00:17:37;;;;;;;8.23;0.30;;;5.60;99.90;;;;;;6121886;23;20153;-78
2022/02/20 00:20:04;;;;;;;11.55;0.70;;;5.70;99.90;;;;;;6146772;23;20025;-79
2022/02/20 00:22:30;;;;;;;10.52;0.38;;;5.70;99.90;;;;;;6121066;23;20037;-81
2022/02/20 00:25:00;;;;;;;11.20;0.65;;;5.60;99.90;;;;;;6097415;23;20374;-78
2022/02/20 00:27:29;;;;;;;7.05;1.08;;;5.60;99.90;;;;;;6121724;23;20013;-82
2022/02/20 00:29:55;;;;;;;9.27;0.40;;;5.60;99.90;;;;;;6097560;23;20013;-78
2022/02/20 00:32:21;;;;;;;8.98;0.40;;;5.60;99.90;;;;;;6097551;23;20013;-79
2022/02/20 00:34:48;;;;;;;6.32;0.40;;;5.60;99.90;;;;;;6097170;23;20057;-78
2022/02/20 00:37:13;;;;;;;10.75;0.40;;;5.60;99.90;;;;;;6097834;23;20016;-78
2022/02/20 00:39:39;;;;;;;8.30;0.32;;;5.50;99.90;;;;;;6121408;23;20319;-81
2022/02/20 00:42:06;;;;;;;10.35;0.32;;;5.40;99.90;;;;;;6097309;23;20017;-82
2022/02/20 00:44:31;;;;;;;4.93;0.30;;;5.30;99.90;;;;;;6097308;23;20017;-80
2022/02/20 00:46:58;;;;;;;5.55;0.40;;;5.30;99.90;;;;;;6148067;23;20017;-81
2022/02/20 00:49:24;;;;;;;7.63;0.30;;;5.20;99.90;;;;;;6097696;23;20013;-80
2022/02/20 00:51:49;;;;;;;2.50;0.30;;;5.10;99.90;;;;;;6146903;23;20021;-81
2022/02/20 00:54:15;;;;;;;5.43;0.50;;;5.00;99.90;;;;;;6148106;23;20029;-80
2022/02/20 00:56:41;;;;;;;3.15;0.20;;;5.00;99.90;;;;;;6096664;23;20006;-78
2022/02/20 00:59:07;;;;;;;2.38;0.20;;;4.90;99.90;;;;;;6097511;23;20024;-79
2022/02/20 01:01:34;;;;;;;5.18;0.40;;;4.90;99.90;;;;;;6096484;23;20014;-80
2022/02/20 01:04:00;;;;;;;4.90;0.50;;;4.80;99.90;;;;;;6148018;23;20092;-79
2022/02/20 01:06:26;;;;;;;3.83;0.20;;;4.80;99.90;;;;;;6097366;23;20497;-81
2022/02/20 01:08:52;;;;;;;1.88;0.20;;;4.70;99.90;;;;;;6097033;23;20342;-79
2022/02/20 01:11:18;;;;;;;3.67;0.20;;;4.80;99.90;;;;;;6096129;23;20013;-81
2022/02/20 01:13:44;;;;;;;1.98;0.30;;;4.80;99.90;;;;;;6096925;23;20427;-81
2022/02/20 01:16:10;;;;;;;7.40;0.32;;;4.80;99.90;;;;;;6098048;23;20020;-81
2022/02/20 01:18:36;;;;;;;5.97;1.02;;;4.70;99.90;;;;;;6120841;23;20052;-82
2022/02/20 01:21:02;;;;;;;8.05;0.30;;;4.80;99.90;;;;;;6121947;23;20009;-82
2022/02/20 01:23:28;;;;;;;3.22;0.30;;;4.70;99.90;;;;;;6103730;23;20052;-82
2022/02/20 01:25:53;;;;;;;3.90;0.30;;;4.70;99.90;;;;;;6120651;23;20422;-82
2022/02/20 01:28:20;;;;;;;3.80;0.20;;;4.70;99.90;;;;;;6122545;23;20100;-81
2022/02/20 01:30:45;;;;;;;7.85;0.28;;;4.80;99.90;;;;;;6121109;23;20434;-81
2022/02/20 01:33:11;;;;;;;3.45;0.30;;;4.80;99.90;;;;;;6145896;23;20339;-82
2022/02/20 01:35:37;;;;;;;4.00;0.30;;;4.70;99.90;;;;;;6146279;23;20084;-79
2022/02/20 01:38:03;;;;;;;5.50;0.30;;;4.80;99.90;;;;;;6121521;23;20021;-81
2022/02/20 01:40:30;;;;;;;3.83;0.20;;;4.80;99.90;;;;;;6120827;23;20009;-80
2022/02/20 01:43:02;;;;;;;5.05;0.20;;;4.80;99.90;;;;;;6146204;23;20018;-81
2022/02/20 01:45:28;;;;;;;5.35;0.20;;;4.70;99.90;;;;;;6145398;23;20014;-81
2022/02/20 01:47:54;;;;;;;2.90;0.30;;;4.80;99.90;;;;;;6146225;23;20025;-81
2022/02/20 01:50:20;;;;;;;4.13;0.30;;;4.80;99.90;;;;;;6121734;23;20072;-81
2022/02/20 01:52:48;;;;;;;3.17;0.40;;;4.80;99.90;;;;;;6121540;23;20470;-82
2022/02/20 01:55:14;;;;;;;7.43;0.30;;;4.70;99.90;;;;;;6145476;23;20021;-82
2022/02/20 01:58:00;;;;;;;2.08;0.28;;;4.80;99.90;;;;;;6146711;23;20009;-82
2022/02/20 02:00:56;;;;;;;1.85;0.20;;;4.80;99.90;;;;;;6146082;23;20072;-81
2022/02/20 02:03:42;;;;;;;5.95;0.30;;;4.80;99.90;;;;;;6145885;23;20016;-82
2022/02/20 02:06:18;;;;;;;2.78;0.20;;;4.80;99.90;;;;;;6123628;23;20017;-79
2022/02/20 02:08:44;;;;;;;3.15;0.20;;;4.80;99.90;;;;;;6121025;23;20041;-82
2022/02/20 02:11:41;;;;;;;2.38;0.20;;;4.80;99.90;;;;;;6127050;23;20084;-81
2022/02/20 02:14:25;;;;;;;5.60;0.50;;;4.80;99.90;;;;;;6146135;23;20454;-80
2022/02/20 02:17:03;;;;;;;3.83;0.30;;;4.80;99.90;;;;;;6123970;23;20013;-82
2022/02/20 02:19:37;;;;;;;7.03;0.22;;;4.80;99.90;;;;;;6122823;23;20021;-82
2022/02/20 02:22:11;;;;;;;2.33;0.20;;;4.80;99.90;;;;;;6122629;23;20009;-81
2022/02/20 02:24:45;;;;;;;5.88;0.40;;;4.80;99.90;;;;;;6144696;23;20070;-82
2022/02/20 02:27:39;;;;;;;3.10;0.30;;;4.80;99.90;;;;;;6139140;23;20100;-81
2022/02/20 02:30:25;;;;;;;1.73;0.20;;;4.70;99.90;;;;;;6146467;23;20013;-82
2022/02/20 02:32:51;;;;;;;3.55;0.20;;;4.80;99.90;;;;;;6120954;23;20020;-82
2022/02/20 02:35:19;;;;;;;4.70;0.20;;;4.80;99.90;;;;;;6145955;23;20048;-81
2022/02/20 02:37:45;;;;;;;5.90;0.22;;;4.80;99.90;;;;;;6121946;23;20009;-84
2022/02/20 02:40:11;;;;;;;2.40;0.20;;;4.70;99.90;;;;;;6122556;23;20032;-81
2022/02/20 02:42:37;;;;;;;3.13;0.20;;;4.70;99.90;;;;;;6122628;23;20075;-82
2022/02/20 02:45:04;;;;;;;2.08;0.20;;;4.70;99.90;;;;;;6147773;23;20100;-83
2022/02/20 02:47:30;;;;;;;1.20;0.10;;;4.80;99.90;;;;;;6147637;23;20023;-81
2022/02/20 02:49:56;;;;;;;1.88;0.35;;;4.80;99.90;;;;;;6123716;23;20010;-82
2022/02/20 02:52:22;;;;;;;1.95;0.20;;;4.70;99.90;;;;;;6122527;23;20068;-82
2022/02/20 02:54:48;;;;;;;5.07;0.30;;;4.70;99.90;;;;;;6146665;23;20518;-80
2022/02/20 02:57:14;;;;;;;2.97;0.28;;;4.70;99.90;;;;;;6123110;23;20088;-82
2022/02/20 02:59:40;;;;;;;2.90;0.30;;;4.80;99.90;;;;;;6147309;23;20037;-82
2022/02/20 03:02:07;;;;;;;1.80;0.30;;;4.70;99.90;;;;;;6147552;23;20013;-82
2022/02/20 03:04:34;;;;;;;6.03;0.40;;;4.70;99.90;;;;;;6147350;23;20036;-83
2022/02/20 03:07:00;;;;;;;5.20;0.40;;;4.70;99.90;;;;;;6147261;23;20009;-81
2022/02/20 03:09:27;;;;;;;2.28;0.40;;;4.70;99.90;;;;;;6122925;23;20013;-80
2022/02/20 03:11:53;;;;;;;7.32;1.15;;;4.70;99.90;;;;;;6122348;23;20378;-81
2022/02/20 03:14:24;;;;;;;2.80;0.30;;;4.70;99.90;;;;;;6124042;23;20053;-81
2022/02/20 03:16:52;;;;;;;3.83;0.30;;;4.70;99.90;;;;;;6122636;23;20037;-80
2022/02/20 03:19:18;;;;;;;2.67;0.30;;;4.70;99.90;;;;;;6122514;23;20013;-82
2022/02/20 03:21:44;;;;;;;2.55;0.20;;;4.70;99.90;;;;;;6145893;23;20312;-82
2022/02/20 03:24:13;;;;;;;1.60;0.20;;;4.70;99.90;;;;;;6123424;23;20076;-82
2022/02/20 03:26:40;;;;;;;4.72;0.30;;;4.70;99.90;;;;;;6122119;23;20351;-82
2022/02/20 03:29:05;;;;;;;2.00;0.20;;;4.60;99.90;;;;;;6122536;23;20038;-80
2022/02/20 03:31:33;;;;;;;0.55;0.10;;;4.70;99.90;;;;;;6122554;23;20013;-79
2022/02/20 03:34:02;;;;;;;4.30;0.17;;;4.60;99.90;;;;;;6147218;23;20017;-80
2022/02/20 03:36:31;;;;;;;1.10;0.10;;;4.60;99.90;;;;;;6146078;23;20008;-83
2022/02/20 03:38:58;;;;;;;1.73;0.10;;;4.60;99.90;;;;;;6147193;23;20047;-80
2022/02/20 03:41:27;;;;;;;0.77;0.17;;;4.60;99.90;;;;;;6146611;23;20014;-80
2022/02/20 03:43:53;;;;;;;0.68;0.10;;;4.60;99.90;;;;;;6122835;23;20096;-80
2022/02/20 03:46:20;;;;;;;3.45;0.10;;;4.60;99.90;;;;;;6122844;23;20060;-80
2022/02/20 03:48:58;;;;;;;1.63;0.20;;;4.60;99.90;;;;;;6146508;23;20025;-79
2022/02/20 03:51:46;;;;;;;0.85;0.10;;;4.60;99.90;;;;;;6145579;23;20009;-81
2022/02/20 03:54:12;;;;;;;3.80;0.20;;;4.60;99.90;;;;;;6122023;23;20585;-80
2022/02/20 03:56:38;;;;;;;2.22;0.10;;;4.60;99.90;;;;;;6121503;23;20029;-80
2022/02/20 03:59:12;;;;;;;2.35;0.10;;;4.50;99.90;;;;;;6123335;23;20472;-80
2022/02/20 04:01:38;;;;;;;1.55;0.10;;;4.50;99.90;;;;;;6121988;23;20088;-80
2022/02/20 04:04:04;;;;;;;2.03;0.10;;;4.50;99.90;;;;;;6146284;23;20012;-79
2022/02/20 04:06:29;;;;;;;0.55;0.10;;;4.50;99.90;;;;;;6121053;23;20017;-80
2022/02/20 04:09:03;;;;;;;1.05;0.30;;;4.50;99.90;;;;;;6123392;23;20024;-80
2022/02/20 04:11:28;;;;;;;0.63;0.00;;;4.50;99.90;;;;;;6145984;23;20017;-80
2022/02/20 04:13:58;;;;;;;0.63;0.00;;;4.50;99.90;;;;;;6146415;23;20017;-80
2022/02/20 04:16:49;;;;;;;0.15;0.00;;;4.40;99.90;;;;;;6127019;23;20321;-79
2022/02/20 04:19:14;;;;;;;1.25;0.08;;;4.40;99.90;;;;;;6146590;23;20273;-80
2022/02/20 04:21:44;;;;;;;2.53;0.13;;;4.40;99.90;;;;;;6122331;23;20004;-80
2022/02/20 04:24:16;;;;;;;0.90;0.20;;;4.40;99.90;;;;;;6146345;23;20025;-80
2022/02/20 04:26:42;;;;;;;6.07;0.20;;;4.40;99.90;;;;;;6145771;23;20491;-81
2022/02/20 04:29:16;;;;;;;2.95;0.20;;;4.40;99.90;;;;;;6123845;23;20013;-80
2022/02/20 04:31:42;;;;;;;1.55;0.20;;;4.40;99.90;;;;;;6145724;23;20009;-80
2022/02/20 04:34:09;;;;;;;1.02;0.20;;;4.40;99.90;;;;;;6121345;23;20021;-79
2022/02/20 04:36:37;;;;;;;2.58;0.35;;;4.40;99.90;;;;;;6147623;23;20033;-79
2022/02/20 04:39:06;;;;;;;0.43;0.20;;;4.40;99.90;;;;;;6146334;23;20072;-81
2022/02/20 04:41:33;;;;;;;2.33;0.10;;;4.40;99.90;;;;;;6145568;23;20458;-82
2022/02/20 04:44:01;;;;;;;0.90;0.10;;;4.40;99.90;;;;;;6122256;23;20442;-79
2022/02/20 04:46:27;;;;;;;1.02;0.10;;;4.40;99.90;;;;;;6146255;23;20017;-81
2022/02/20 04:48:53;;;;;;;2.45;0.20;;;4.40;99.90;;;;;;6121410;23;20016;-81
2022/02/20 04:51:38;;;;;;;3.03;0.20;;;4.40;99.90;;;;;;6147610;23;20025;-80
2022/02/20 04:54:04;;;;;;;0.70;0.20;;;4.40;99.90;;;;;;6146214;23;20017;-80
2022/02/20 04:56:30;;;;;;;2.13;0.30;;;4.40;99.90;;;;;;6148110;23;20006;-80
2022/02/20 04:58:56;;;;;;;1.83;0.30;;;4.40;99.90;;;;;;6148204;23;20023;-80
2022/02/20 05:01:34;;;;;;;2.90;0.30;;;4.40;99.90;;;;;;6124082;23;20008;-81
2022/02/20 05:04:32;;;;;;;2.00;0.20;;;4.40;99.90;;;;;;6131899;23;20036;-81
2022/02/20 05:06:58;;;;;;;4.13;0.20;;;4.40;99.90;;;;;;6146110;23;20438;-81
2022/02/20 05:09:30;;;;;;;2.28;0.30;;;4.50;99.90;;;;;;6145736;23;20335;-80
2022/02/20 05:11:59;;;;;;;1.80;0.25;;;4.50;99.90;;;;;;6122082;23;20021;-81
2022/02/20 05:14:25;;;;;;;1.90;0.20;;;4.50;99.90;;;;;;6121927;23;20017;-81
2022/02/20 05:16:52;;;;;;;2.25;0.30;;;4.50;99.90;;;;;;6146873;23;20005;-81
2022/02/20 05:19:28;;;;;;;2.40;0.40;;;4.50;99.90;;;;;;6122893;23;20009;-80
2022/02/20 05:21:57;;;;;;;3.83;0.57;;;4.40;99.90;;;;;;6121784;23;20009;-80
2022/02/20 05:24:26;;;;;;;3.70;0.68;;;4.40;99.90;;;;;;6122447;23;20026;-81
2022/02/20 05:26:53;;;;;;;2.90;0.80;;;4.40;99.90;;;;;;6121781;23;20045;-81
2022/02/20 05:29:21;;;;;;;3.47;0.70;;;4.40;99.90;;;;;;6121562;23;20017;-80
2022/02/20 05:31:52;;;;;;;4.10;0.70;;;4.30;99.90;;;;;;6122223;23;20041;-81
2022/02/20 05:34:21;;;;;;;4.15;1.13;;;4.30;99.90;;;;;;6146257;23;20010;-81
2022/02/20 05:36:47;;;;;;;5.20;1.40;;;4.30;99.90;;;;;;6145401;23;20567;-80
2022/02/20 05:39:26;;;;;;;3.97;0.98;;;4.30;99.90;;;;;;6146126;23;20017;-80
2022/02/20 05:41:54;;;;;;;6.70;1.15;;;4.30;99.90;;;;;;6145970;23;20037;-82
2022/02/20 05:44:21;;;;;;;2.95;0.80;;;4.30;99.90;;;;;;6146403;23;20374;-80
2022/02/20 05:46:53;;;;;;;3.67;0.70;;;4.30;99.90;;;;;;6122280;23;20005;-79
2022/02/20 05:49:20;;;;;;;3.22;0.88;;;4.30;99.90;;;;;;6145995;23;20017;-78
2022/02/20 05:51:55;;;;;;;5.32;1.88;;;4.30;99.90;;;;;;6145931;23;20363;-83
2022/02/20 05:54:33;;;;;;;4.97;0.90;;;4.30;99.90;;;;;;6145511;23;20113;-79
2022/02/20 05:57:00;;;;;;;4.47;0.98;;;4.30;99.90;;;;;;6121475;23;20009;-79
2022/02/20 05:59:26;;;;;;;3.03;0.90;;;4.30;99.90;;;;;;6145970;23;20014;-79
2022/02/20 06:01:54;;;;;;;3.03;1.00;;;4.30;99.90;;;;;;6121627;23;20013;-79
2022/02/20 06:04:23;;;;;;;5.43;1.73;;;4.30;99.90;;;;;;6145980;23;20101;-79
2022/02/20 06:06:48;;;;;;;3.40;1.02;;;4.30;99.90;;;;;;6145092;23;20033;-79
2022/02/20 06:09:34;;;;;;;6.30;1.13;;;4.30;99.90;;;;;;6145610;23;20382;-79
2022/02/20 06:12:32;;;;;;;6.40;1.35;;;4.40;99.90;;;;;;6086704;23;20070;-78
2022/02/20 06:15:36;;;;;;;4.88;1.10;;;4.40;99.90;;;;;;6058275;23;20465;-81
2022/02/20 06:18:16;;;;;;;5.22;0.80;;;4.40;99.90;;;;;;6034528;23;20018;-78
2022/02/20 06:20:57;;;;;;;4.82;1.20;;;4.50;99.90;;;;;;6034874;23;20252;-80
2022/02/20 06:23:32;;;;;;;6.40;1.98;;;4.50;99.90;;;;;;6057740;23;20189;-83
2022/02/20 06:26:34;;;;;;;6.57;1.67;;;4.60;99.90;;;;;;6036322;23;20025;-79
2022/02/20 06:29:00;;;;;;;9.32;1.67;;;4.60;99.90;;;;;;6034082;23;20015;-78
2022/02/20 06:31:26;;;;;;;6.22;1.75;;;4.70;99.90;;;;;;6033794;23;20368;-77
2022/02/20 06:33:53;;;;;;;11.45;2.33;;;4.70;99.90;;;;;;6034269;23;20098;-78
2022/02/20 06:36:20;;;;;;;11.18;2.45;;;4.80;99.90;;;;;;6034492;23;20167;-80
2022/02/20 06:38:47;;;;;;;11.18;2.05;;;4.80;99.90;;;;;;6033801;23;20050;-81
2022/02/20 06:41:13;;;;;;;6.88;1.77;;;4.90;99.90;;;;;;6034344;23;20023;-80
2022/02/20 06:43:44;;;;;;;7.85;2.10;;;5.00;99.90;;;;;;6011148;23;20400;-81
2022/02/20 06:46:29;;;;;;;11.38;2.65;;;5.00;99.90;;;;;;6052499;23;20025;-80
2022/02/20 06:49:15;;;;;;;12.65;2.30;;;5.10;99.90;;;;;;6127352;23;20017;-81
2022/02/20 06:51:49;;;;;;;11.48;2.20;;;5.10;99.90;;;;;;6149406;23;20013;-80
2022/02/20 06:54:34;;;;;;;8.00;2.15;;;5.10;99.90;;;;;;6148534;23;20403;-82
2022/02/20 06:57:20;;;;;;;10.57;2.15;;;5.10;99.90;;;;;;6148589;23;20312;-80
2022/02/20 06:59:45;;;;;;;7.80;1.40;;;5.10;99.90;;;;;;6148016;23;20200;-80
2022/02/20 07:02:11;;;;;;;11.82;3.28;;;5.10;99.90;;;;;;6146815;23;20397;-81
2022/02/20 07:04:36;;;;;;;8.15;2.15;;;5.20;99.90;;;;;;6148080;23;20065;-81
2022/02/20 07:07:02;;;;;;;9.77;1.92;;;5.20;99.90;;;;;;6146990;23;20438;-79
2022/02/20 07:09:28;;;;;;;11.07;2.95;;;5.20;99.90;;;;;;6097602;23;20049;-81
2022/02/20 07:11:54;;;;;;;7.70;2.55;;;5.20;99.90;;;;;;6147107;23;20001;-79
2022/02/20 07:14:19;;;;;;;9.10;2.05;;;5.30;99.90;;;;;;6147763;23;20021;-80
2022/02/20 07:16:45;;;;;;;8.73;1.33;;;5.40;99.90;;;;;;6146444;23;20074;-79
2022/02/20 07:19:10;;;;;;;6.45;1.27;;;5.50;99.90;;;;;;6146497;23;20010;-79
2022/02/20 07:21:36;;;;;;;9.75;2.03;;;5.50;99.90;;;;;;6121860;23;20059;-79
2022/02/20 07:24:02;;;;;;;10.07;1.98;;;5.80;99.90;;;;;;6146223;23;20033;-80
2022/02/20 07:26:32;;;;;;;9.32;1.52;;;5.90;99.90;;;;;;6146538;23;20036;-80
2022/02/20 07:28:58;;;;;;;11.20;1.45;;;5.90;99.90;;;;;;6146381;23;20021;-80
2022/02/20 07:31:26;;;;;;;7.45;1.15;;;5.90;99.90;;;;;;6146784;23;20525;-83
2022/02/20 07:33:54;;;;;;;11.65;1.83;;;6.10;99.90;;;;;;6146347;23;20042;-81
2022/02/20 07:36:20;;;;;;;5.15;0.70;;;6.10;99.90;;;;;;6146601;23;20016;-81
2022/02/20 07:38:46;;;;;;;7.22;0.70;;;6.20;99.90;;;;;;6146762;23;20331;-81
2022/02/20 07:41:11;;;;;;;7.03;0.75;;;6.30;99.90;;;;;;6146301;23;20009;-80
2022/02/20 07:43:37;;;;;;;7.68;0.80;;;6.30;99.90;;;;;;6120766;23;20016;-80
2022/02/20 07:46:03;;;;;;;5.57;0.77;;;6.30;99.90;;;;;;6121564;23;20060;-81
2022/02/20 07:48:28;;;;;;;6.30;1.00;;;6.40;99.90;;;;;;6118433;23;20014;-81
2022/02/20 07:50:54;;;;;;;7.80;0.70;;;6.50;99.90;;;;;;6145707;23;20017;-81
2022/02/20 07:53:19;;;;;;;6.88;1.02;;;6.60;99.90;;;;;;6144686;23;20009;-82
2022/02/20 07:55:45;;;;;;;6.88;0.88;;;6.70;99.90;;;;;;6146436;23;20012;-81
2022/02/20 07:58:11;;;;;;;7.78;0.70;;;6.80;99.90;;;;;;6144711;23;20013;-81
2022/02/20 08:00:37;;;;;;;8.38;0.80;;;6.90;99.90;;;;;;6144298;23;20013;-82
2022/02/20 08:03:03;;;;;;;4.35;0.70;;;7.00;99.90;;;;;;6145011;23;20478;-81
2022/02/20 08:05:29;;;;;;;5.47;1.02;;;7.10;99.90;;;;;;6144576;23;20013;-81
2022/02/20 08:07:55;;;;;;;6.70;0.60;;;7.10;99.90;;;;;;6145107;23;20017;-81
2022/02/20 08:10:21;;;;;;;7.65;0.70;;;7.20;99.90;;;;;;6146865;23;20354;-82
2022/02/20 08:12:47;;;;;;;3.60;0.60;;;7.30;99.90;;;;;;6145879;23;20446;-80
2022/02/20 08:15:22;;;;;;;3.35;0.40;;;7.30;99.90;;;;;;6146290;23;20022;-81
2022/02/20 08:17:51;;;;;;;3.80;0.30;;;7.40;99.90;;;;;;6121287;23;20029;-82
2022/02/20 08:20:18;;;;;;;4.10;0.35;;;7.50;99.90;;;;;;6145398;23;20006;-83
2022/02/20 08:22:44;;;;;;;3.47;0.30;;;7.50;99.90;;;;;;6146514;23;20057;-82
2022/02/20 08:25:11;;;;;;;1.92;0.38;;;7.60;99.90;;;;;;6147244;23;20025;-82
2022/02/20 08:27:37;;;;;;;3.67;0.35;;;7.60;99.90;;;;;;6120543;23;20010;-82
2022/02/20 08:30:07;;;;;;;3.97;0.40;;;7.80;99.90;;;;;;6120969;23;20441;-82
2022/02/20 08:32:32;;;;;;;2.17;0.38;;;7.90;99.90;;;;;;6119704;23;20015;-81
2022/02/20 08:34:59;;;;;;;2.50;0.30;;;8.00;99.90;;;;;;6146251;23;20022;-82
2022/02/20 08:37:25;;;;;;;4.20;1.00;;;8.00;99.90;;;;;;6120223;23;20335;-81
2022/02/20 08:39:51;;;;;;;3.45;0.35;;;8.00;99.90;;;;;;6146156;23;20017;-81
2022/02/20 08:42:16;;;;;;;1.70;0.30;;;8.10;99.90;;;;;;6094979;23;20453;-84
2022/02/20 08:44:42;;;;;;;2.47;0.30;;;8.20;99.90;;;;;;6119778;23;20013;-82
2022/02/20 08:47:08;;;;;;;2.92;0.40;;;8.20;99.90;;;;;;6120018;23;20092;-84
2022/02/20 08:49:34;;;;;;;1.73;0.25;;;8.20;99.90;;;;;;6120158;23;20013;-82
2022/02/20 08:52:00;;;;;;;2.63;0.45;;;8.20;99.90;;;;;;6096460;23;20417;-84
2022/02/20 08:54:26;;;;;;;5.00;0.70;;;8.30;99.90;;;;;;6147008;23;20096;-83
2022/02/20 08:56:52;;;;;;;3.72;0.50;;;8.30;99.90;;;;;;6119554;23;20093;-83
2022/02/20 08:59:17;;;;;;;2.13;0.40;;;8.40;99.90;;;;;;6119081;23;20154;-84
2022/02/20 09:01:43;;;;;;;3.55;0.60;;;8.40;99.90;;;;;;6095510;23;20383;-82
2022/02/20 09:04:09;;;;;;;4.97;0.52;;;8.40;99.90;;;;;;6120546;23;20009;-82
2022/02/20 09:06:35;;;;;;;2.97;0.50;;;8.40;99.90;;;;;;6146610;23;20010;-81
2022/02/20 09:09:01;;;;;;;6.78;0.90;;;8.50;99.90;;;;;;6146667;23;20207;-83
2022/02/20 09:11:29;;;;;;;4.43;0.98;;;8.50;99.90;;;;;;6147008;23;20009;-83
2022/02/20 09:13:55;;;;;;;6.82;1.00;;;8.60;99.90;;;;;;6120212;23;20014;-82
2022/02/20 09:16:23;;;;;;;7.15;0.90;;;8.60;99.90;;;;;;6147597;23;20460;-81
2022/02/20 09:18:49;;;;;;;5.82;1.35;;;8.70;99.90;;;;;;6146383;23;20474;-83
2022/02/20 09:21:15;;;;;;;7.70;1.63;;;8.70;99.90;;;;;;6146940;23;20009;-81
2022/02/20 09:23:40;;;;;;;4.38;1.10;;;8.80;99.90;;;;;;6130907;23;20044;-84
2022/02/20 09:26:07;;;;;;;7.78;2.00;;;8.80;99.90;;;;;;6145289;23;20023;-82
2022/02/20 09:28:33;;;;;;;7.28;1.98;;;8.90;99.90;;;;;;6147354;23;20006;-82
2022/02/20 09:31:01;;;;;;;7.30;2.25;;;9.00;99.90;;;;;;6121539;23;20096;-83
2022/02/20 09:33:27;;;;;;;9.02;2.05;;;9.00;99.90;;;;;;6147457;23;20438;-85
2022/02/20 09:35:52;;;;;;;7.00;2.35;;;9.00;99.90;;;;;;6120618;23;20019;-86
2022/02/20 09:38:18;;;;;;;8.90;2.58;;;9.10;99.90;;;;;;6145660;23;20013;-84
2022/02/20 09:40:44;;;;;;;10.07;2.00;;;9.00;99.90;;;;;;6145733;23;20021;-82
2022/02/20 09:43:15;;;;;;;11.23;2.42;;;9.10;99.90;;;;;;6146304;23;20097;-82
2022/02/20 09:45:45;;;;;;;14.32;2.83;;;9.20;99.90;;;;;;6145777;23;20013;-84
2022/02/20 09:48:12;;;;;;;15.48;3.00;;;9.20;99.90;;;;;;6122863;23;20009;-84
2022/02/20 09:50:38;;;;;;;15.00;3.10;;;9.20;99.90;;;;;;6148484;23;20019;-86
2022/02/20 09:53:04;;;;;;;7.05;2.25;;;9.30;99.90;;;;;;6123250;23;20037;-86
2022/02/20 09:55:32;;;;;;;10.70;2.83;;;9.30;99.90;;;;;;6147675;23;20372;-83
2022/02/20 09:57:58;;;;;;;8.68;2.65;;;9.40;99.90;;;;;;6147910;23;20001;-86
2022/02/20 10:00:24;;;;;;;15.65;3.70;;;9.40;99.90;;;;;;6147951;23;20092;-82
2022/02/20 10:02:50;;;;;;;14.43;2.70;;;9.50;99.90;;;;;;6149073;23;20371;-82
2022/02/20 10:05:19;;;;;;;12.93;4.05;;;9.60;99.90;;;;;;6122996;23;20017;-85
2022/02/20 10:07:46;;;;;;;15.95;3.55;;;9.70;99.90;;;;;;6146476;23;20453;-84
2022/02/20 10:10:21;;;;;;;18.33;4.72;;;9.70;99.90;;;;;;6147440;23;20347;-81
2022/02/20 10:12:57;;;;;;;16.75;3.50;;;9.70;99.90;;;;;;6149046;23;20033;-81
2022/02/20 10:15:35;;;;;;;18.73;3.95;;;9.80;99.90;;;;;;6147482;23;20104;-83
2022/02/20 10:18:26;;;;;;;11.65;2.90;;;9.80;99.90;;;;;;6146878;23;20312;-82
2022/02/20 10:21:16;;;;;;;15.60;4.85;;;9.80;99.90;;;;;;6148949;23;20060;-84
2022/02/20 10:24:07;;;;;;;16.77;3.75;;;9.80;99.90;;;;;;6148670;23;20032;-84
2022/02/20 10:27:08;;;;;;;15.90;4.18;;;9.80;99.90;;;;;;6116446;23;20050;-84
2022/02/20 10:30:07;;;;;;;16.70;4.25;;;9.80;99.90;;;;;;6116797;23;20118;-82
2022/02/20 10:32:33;;;;;;;14.77;3.40;;;9.80;99.90;;;;;;6091280;23;20486;-84
2022/02/20 10:35:09;;;;;;;21.10;4.10;;;9.90;99.90;;;;;;6115259;23;20028;-85
2022/02/20 10:37:35;;;;;;;14.65;3.83;;;9.80;99.90;;;;;;6115555;23;20010;-85
2022/02/20 10:40:01;;;;;;;17.90;3.97;;;9.80;99.90;;;;;;6116058;23;20016;-82
2022/02/20 10:42:27;;;;;;;20.38;4.28;;;9.80;99.90;;;;;;6090883;23;20006;-83
2022/02/20 10:45:00;;;;;;;18.55;4.15;;;9.80;99.90;;;;;;6092003;23;20317;-83
2022/02/20 10:47:27;;;;;;;22.15;3.25;;;9.90;99.90;;;;;;6091520;23;20010;-86
2022/02/20 10:49:54;;;;;;;15.15;3.08;;;9.90;99.90;;;;;;6115606;23;20053;-83
2022/02/20 10:52:25;;;;;;;11.25;2.15;;;9.90;99.90;;;;;;6090217;23;20178;-83
2022/02/20 10:55:07;;;;;;;13.75;3.55;;;9.90;99.90;;;;;;6066481;23;20028;-84
2022/02/20 10:57:38;;;;;;;13.50;3.03;;;9.90;99.90;;;;;;6115156;23;20028;-83
2022/02/20 11:00:20;;;;;;;10.10;2.75;;;9.90;99.90;;;;;;6087676;23;20064;-86
2022/02/20 11:02:46;;;;;;;17.48;3.10;;;10.00;99.90;;;;;;6110615;23;20380;-87
2022/02/20 11:05:12;;;;;;;16.80;3.45;;;10.00;99.90;;;;;;6097719;23;20059;-84
2022/02/20 11:07:39;;;;;;;22.65;3.25;;;10.00;99.90;;;;;;6121389;23;20017;-86
2022/02/20 11:10:10;;;;;;;19.95;3.58;;;9.90;99.90;;;;;;6098230;23;20013;-86
2022/02/20 11:12:37;;;;;;;19.30;3.58;;;9.90;99.90;;;;;;6121841;23;20016;-83
2022/02/20 11:15:05;;;;;;;17.80;2.85;;;9.90;99.90;;;;;;6121968;23;20446;-86
2022/02/20 11:17:31;;;;;;;20.05;3.10;;;9.80;99.90;;;;;;6121597;23;20010;-84
2022/02/20 11:19:58;;;;;;;14.32;2.40;;;9.80;99.90;;;;;;6121224;23;20016;-84
2022/02/20 11:22:30;;;;;;;16.05;3.15;;;9.80;99.90;;;;;;6121266;23;20056;-84
2022/02/20 11:25:01;;;;;;;16.83;2.60;;;9.80;99.90;;;;;;6147119;23;20017;-84
2022/02/20 11:27:29;;;;;;;14.93;3.25;;;9.80;99.90;;;;;;6148315;23;20092;-86
2022/02/20 11:29:55;;;;;;;24.52;4.13;;;9.80;99.90;;;;;;6121768;23;20320;-84
2022/02/20 11:32:21;;;;;;;17.35;3.40;;;9.80;99.90;;;;;;6146807;23;20012;-85
2022/02/20 11:34:48;;;;;;;12.68;2.20;;;9.80;99.90;;;;;;6121891;23;20473;-85
2022/02/20 11:37:15;;;;;;;15.93;2.42;;;9.70;99.90;;;;;;6147174;23;20005;-87
2022/02/20 11:40:02;;;;;;;18.88;3.08;;;9.70;99.90;;;;;;6121700;23;20017;-86
2022/02/20 11:42:28;;;;;;;16.33;2.60;;;9.70;99.90;;;;;;6145379;23;20066;-85
2022/02/20 11:45:01;;;;;;;19.23;3.53;;;9.80;99.90;;;;;;6147897;23;20347;-83
2022/02/20 11:47:41;;;;;;;22.63;2.97;;;9.80;99.90;;;;;;6121622;23;20005;-87
2022/02/20 11:50:16;;;;;;;17.00;2.58;;;9.80;99.90;;;;;;6145023;23;20005;-86
2022/02/20 11:52:55;;;;;;;16.98;2.53;;;9.80;99.90;;;;;;6146336;23;20009;-84
2022/02/20 11:55:24;;;;;;;19.50;3.42;;;9.80;99.90;;;;;;6147357;23;20017;-83
2022/02/20 11:57:50;;;;;;;16.92;3.25;;;9.80;99.90;;;;;;6121503;23;20020;-86
2022/02/20 12:00:22;;;;;;;19.63;3.67;;;9.80;99.90;;;;;;6120845;23;20013;-85
2022/02/20 12:03:04;;;;;;;26.48;3.38;;;9.80;99.90;;;;;;6146219;23;20014;-84
2022/02/20 12:05:32;;;;;;;16.58;2.75;;;9.90;99.90;;;;;;6144495;23;20431;-84
2022/02/20 12:07:58;;;;;;;15.85;2.35;;;9.90;99.90;;;;;;6120831;23;20041;-85
2022/02/20 12:10:24;;;;;;;19.23;2.13;;;9.90;99.90;;;;;;6146499;23;20031;-85
2022/02/20 12:12:51;;;;;;;19.45;3.30;;;9.90;99.90;;;;;;6144486;23;20434;-84
2022/02/20 12:15:33;;;;;;;14.38;2.63;;;9.90;99.90;;;;;;6120473;23;20025;-83
2022/02/20 12:18:00;;;;;;;17.05;2.72;;;9.90;99.90;;;;;;6145600;23;20032;-86
2022/02/20 12:20:47;;;;;;;21.63;2.88;;;9.90;99.90;;;;;;6121030;23;20153;-86
2022/02/20 12:23:26;;;;;;;21.42;2.20;;;9.80;99.90;;;;;;6124650;23;20511;-87
2022/02/20 12:25:53;;;;;;;16.08;1.98;;;9.80;99.90;;;;;;6145919;23;20104;-88
2022/02/20 12:28:36;;;;;;;17.70;1.73;;;9.80;99.90;;;;;;6120535;23;20009;-86
2022/02/20 12:31:29;;;;;;;12.85;2.28;;;9.80;99.90;;;;;;6145452;23;20434;-83
2022/02/20 12:33:55;;;;;;;14.05;1.40;;;9.70;99.90;;;;;;6144589;23;20021;-85
2022/02/20 12:36:29;;;;;;;15.50;2.50;;;9.70;99.90;;;;;;6121510;23;20492;-83
2022/02/20 12:38:57;;;;;;;22.33;2.78;;;9.70;99.90;;;;;;6148069;23;20506;-85
2022/02/20 12:41:22;;;;;;;16.52;1.98;;;9.70;99.90;;;;;;6148724;23;20017;-86
2022/02/20 12:43:50;;;;;;;18.00;2.15;;;9.70;99.90;;;;;;6145937;23;20146;-83
2022/02/20 12:46:17;;;;;;;14.20;1.80;;;9.70;99.90;;;;;;6145720;23;20021;-82
2022/02/20 12:48:43;;;;;;;12.25;2.47;;;9.60;99.90;;;;;;6145485;23;20017;-84
2022/02/20 12:51:11;;;;;;;12.68;2.30;;;9.60;99.90;;;;;;6146173;23;20462;-83
2022/02/20 12:53:37;;;;;;;14.90;1.58;;;9.60;99.90;;;;;;6146882;23;20037;-84
2022/02/20 12:56:04;;;;;;;23.23;2.60;;;9.60;99.90;;;;;;6122520;23;20020;-83
2022/02/20 12:58:30;;;;;;;13.30;1.88;;;9.60;99.90;;;;;;6145805;23;20013;-85
2022/02/20 13:00:56;;;;;;;13.82;1.30;;;9.60;99.90;;;;;;6146192;23;20014;-84
2022/02/20 13:03:24;;;;;;;15.65;1.73;;;9.60;99.90;;;;;;6146489;23;20017;-87
2022/02/20 13:05:52;;;;;;;17.00;2.28;;;9.50;99.90;;;;;;6121294;23;20001;-82